createdAt,value
2022-09-07T00:01:01.053Z,23.98
2022-09-07T00:03:28.330Z,23.77
2022-09-07T00:05:55.622Z,23.10
2022-09-07T00:08:25.559Z,22.89
2022-09-07T00:11:00.595Z,22.65
2022-09-07T00:13:31.934Z,22.47
2022-09-07T00:15:59.310Z,22.38
2022-09-07T00:18:26.153Z,22.11
2022-09-07T00:21:04.747Z,22.16
2022-09-07T00:23:32.271Z,21.96
2022-09-07T00:26:04.878Z,21.69
2022-09-07T00:28:32.381Z,21.62
2022-09-07T00:30:59.152Z,21.63
2022-09-07T00:33:26.182Z,21.56
2022-09-07T00:35:53.738Z,21.64
2022-09-07T00:38:20.590Z,21.63
2022-09-07T00:40:47.307Z,21.54
2022-09-07T00:43:28.184Z,21.51
2022-09-07T00:45:54.846Z,21.61
2022-09-07T00:48:25.798Z,21.55
2022-09-07T00:51:02.160Z,21.70
2022-09-07T00:53:34.559Z,21.60
2022-09-07T00:56:02.877Z,21.53
2022-09-07T00:58:30.877Z,21.40
2022-09-07T01:00:57.672Z,21.35
2022-09-07T01:03:30.917Z,21.43
2022-09-07T01:06:05.346Z,21.71
2022-09-07T01:08:32.861Z,21.84
2022-09-07T01:11:01.039Z,21.73
2022-09-07T01:13:29.780Z,21.35
2022-09-07T01:16:08.521Z,21.21
2022-09-07T01:18:52.333Z,21.10
2022-09-07T01:21:21.398Z,20.68
2022-09-07T01:24:06.561Z,20.93
2022-09-07T01:26:54.020Z,20.39
2022-09-07T01:29:33.630Z,20.04
2022-09-07T01:32:01.363Z,19.92
2022-09-07T01:34:28.423Z,19.88
2022-09-07T01:36:55.016Z,20.00
2022-09-07T01:39:29.070Z,20.21
2022-09-07T01:42:01.387Z,20.56
2022-09-07T01:44:39.827Z,20.63
2022-09-07T01:47:32.608Z,20.24
2022-09-07T01:50:07.589Z,20.30
2022-09-07T01:53:02.556Z,20.19
2022-09-07T01:55:38.766Z,20.34
2022-09-07T01:58:39.720Z,20.23
2022-09-07T02:01:25.435Z,20.00
2022-09-07T02:04:01.062Z,19.98
2022-09-07T02:06:50.243Z,19.84
2022-09-07T02:09:28.612Z,19.55
2022-09-07T02:11:55.694Z,19.57
2022-09-07T02:14:28.655Z,19.87
2022-09-07T02:17:10.739Z,19.85
2022-09-07T02:19:45.137Z,19.99
2022-09-07T02:22:16.498Z,20.15
2022-09-07T02:24:48.757Z,20.09
2022-09-07T02:27:19.299Z,19.91
2022-09-07T02:29:46.160Z,20.14
2022-09-07T02:32:12.858Z,19.98
2022-09-07T02:34:39.670Z,19.52
2022-09-07T02:37:09.333Z,19.47
2022-09-07T02:39:36.064Z,19.71
2022-09-07T02:42:03.079Z,19.72
2022-09-07T02:44:37.050Z,19.29
2022-09-07T02:47:09.641Z,19.49
2022-09-07T02:49:54.186Z,19.54
2022-09-07T02:52:30.426Z,19.40
2022-09-07T02:55:18.784Z,19.41
2022-09-07T02:57:57.178Z,19.36
2022-09-07T03:00:26.119Z,19.21
2022-09-07T03:03:23.460Z,19.23
2022-09-07T03:06:01.627Z,19.33
2022-09-07T03:08:46.920Z,19.40
2022-09-07T03:11:14.492Z,19.24
2022-09-07T03:13:41.287Z,19.15
2022-09-07T03:16:13.116Z,19.01
2022-09-07T03:18:40.388Z,19.17
2022-09-07T03:21:06.980Z,19.05
2022-09-07T03:23:34.027Z,18.84
2022-09-07T03:26:00.687Z,18.78
2022-09-07T03:28:27.451Z,18.81
2022-09-07T03:30:54.258Z,18.68
2022-09-07T03:33:20.917Z,18.70
2022-09-07T03:35:58.429Z,18.51
2022-09-07T03:38:25.116Z,18.58
2022-09-07T03:41:00.003Z,18.21
2022-09-07T03:43:27.708Z,18.23
2022-09-07T03:46:03.519Z,18.29
2022-09-07T03:48:31.256Z,18.40
2022-09-07T03:51:06.940Z,18.64
2022-09-07T03:53:36.314Z,18.10
2022-09-07T03:56:09.670Z,18.13
2022-09-07T03:58:36.651Z,18.30
2022-09-07T04:01:09.751Z,18.17
2022-09-07T04:03:37.327Z,18.49
2022-09-07T04:06:04.567Z,18.23
2022-09-07T04:08:33.326Z,18.40
2022-09-07T04:11:01.659Z,18.10
2022-09-07T04:13:30.169Z,18.25
2022-09-07T04:15:57.058Z,18.28
2022-09-07T04:18:24.695Z,18.30
2022-09-07T04:20:51.460Z,18.08
2022-09-07T04:23:19.331Z,17.92
2022-09-07T04:25:50.787Z,17.88
2022-09-07T04:28:19.552Z,17.77
2022-09-07T04:30:47.069Z,17.80
2022-09-07T04:33:14.524Z,18.14
2022-09-07T04:35:42.644Z,17.92
2022-09-07T04:38:13.947Z,17.87
2022-09-07T04:40:40.897Z,17.77
2022-09-07T04:43:09.443Z,17.57
2022-09-07T04:45:40.162Z,17.99
2022-09-07T04:48:07.454Z,18.19
2022-09-07T04:50:34.153Z,17.83
2022-09-07T04:53:00.838Z,17.85
2022-09-07T04:55:27.571Z,18.03
2022-09-07T04:57:54.271Z,18.16
2022-09-07T05:00:20.869Z,18.14
2022-09-07T05:02:47.684Z,17.95
2022-09-07T05:05:14.680Z,18.02
2022-09-07T05:07:41.495Z,18.12
2022-09-07T05:10:08.612Z,17.77
2022-09-07T05:12:35.344Z,17.72
2022-09-07T05:15:02.041Z,17.94
2022-09-07T05:17:30.988Z,18.22
2022-09-07T05:19:58.029Z,18.36
2022-09-07T05:22:25.822Z,18.50
2022-09-07T05:24:52.483Z,18.30
2022-09-07T05:27:19.087Z,18.40
2022-09-07T05:30:02.469Z,18.25
2022-09-07T05:32:30.487Z,18.22
2022-09-07T05:34:57.092Z,18.44
2022-09-07T05:37:24.113Z,18.32
2022-09-07T05:39:55.383Z,18.20
2022-09-07T05:42:22.740Z,18.35
2022-09-07T05:44:49.328Z,18.53
2022-09-07T05:47:16.065Z,18.71
2022-09-07T05:49:42.687Z,18.76
2022-09-07T05:52:10.128Z,18.64
2022-09-07T05:54:36.850Z,18.70
2022-09-07T05:57:04.049Z,18.75
2022-09-07T05:59:30.912Z,18.40
2022-09-07T06:01:57.702Z,18.30
2022-09-07T06:04:24.412Z,18.20
2022-09-07T06:07:19.979Z,18.29
2022-09-07T06:12:25.642Z,18.75
2022-09-07T06:14:52.228Z,18.78
2022-09-07T06:17:19.698Z,18.89
2022-09-07T06:19:46.347Z,19.04
2022-09-07T06:22:13.264Z,18.83
2022-09-07T06:24:39.877Z,18.89
2022-09-07T06:27:06.531Z,18.83
2022-09-07T06:29:33.168Z,18.89
2022-09-07T06:34:46.886Z,18.99
2022-09-07T06:37:13.998Z,19.14
2022-09-07T06:39:40.679Z,19.28
2022-09-07T06:42:07.379Z,19.22
2022-09-07T06:44:41.571Z,19.15
2022-09-07T06:47:08.139Z,19.14
2022-09-07T06:49:34.803Z,19.18
2022-09-07T06:52:02.425Z,19.24
2022-09-07T06:57:16.036Z,19.24
2022-09-07T06:59:42.656Z,19.44
2022-09-07T07:02:11.646Z,19.34
2022-09-07T07:04:41.204Z,19.26
2022-09-07T07:07:13.844Z,19.31
2022-09-07T07:09:41.368Z,19.40
2022-09-07T07:12:09.467Z,19.59
2022-09-07T07:14:38.406Z,19.64
2022-09-07T07:17:06.732Z,19.61
2022-09-07T07:19:33.348Z,19.62
2022-09-07T07:24:47.242Z,19.82
2022-09-07T07:27:14.021Z,19.93
2022-09-07T07:29:40.807Z,19.94
2022-09-07T07:32:07.586Z,19.84
2022-09-07T07:34:35.160Z,19.92
2022-09-07T07:37:01.978Z,20.01
2022-09-07T07:42:15.623Z,19.94
2022-09-07T07:44:42.406Z,19.99
2022-09-07T07:47:09.982Z,19.98
2022-09-07T07:49:36.679Z,19.86
2022-09-07T07:54:50.279Z,19.98
2022-09-07T07:57:18.868Z,19.92
2022-09-07T07:59:46.238Z,19.90
2022-09-07T08:02:16.864Z,19.94
2022-09-07T08:04:43.827Z,19.85
2022-09-07T08:07:14.339Z,19.99
2022-09-07T08:09:43.537Z,20.10
2022-09-07T08:12:13.200Z,20.12
2022-09-07T08:14:41.518Z,20.07
2022-09-07T08:17:11.105Z,20.16
2022-09-07T08:19:38.291Z,20.21
2022-09-07T08:22:05.551Z,20.13
2022-09-07T08:24:32.898Z,20.08
2022-09-07T08:26:59.656Z,19.99
2022-09-07T08:29:27.169Z,19.96
2022-09-07T08:31:54.108Z,19.99
2022-09-07T08:34:21.809Z,20.11
2022-09-07T08:36:48.567Z,20.26
2022-09-07T08:39:15.214Z,20.23
2022-09-07T08:42:00.616Z,20.29
2022-09-07T08:44:37.425Z,20.26
2022-09-07T08:47:35.029Z,20.32
2022-09-07T08:50:12.386Z,20.36
2022-09-07T08:52:49.409Z,20.33
2022-09-07T08:55:27.705Z,20.21
2022-09-07T08:58:47.782Z,20.00
2022-09-07T09:01:32.000Z,19.97
2022-09-07T09:04:16.067Z,20.19
2022-09-07T09:06:55.921Z,20.19
2022-09-07T09:09:45.467Z,20.14
2022-09-07T09:12:24.420Z,20.31
2022-09-07T09:15:02.949Z,20.37
2022-09-07T09:17:30.058Z,20.32
2022-09-07T09:20:14.980Z,20.37
2022-09-07T09:22:43.079Z,20.32
2022-09-07T09:25:30.155Z,20.11
2022-09-07T09:27:56.829Z,20.10
2022-09-07T09:30:24.567Z,20.04
2022-09-07T09:33:14.887Z,20.19
2022-09-07T09:35:43.456Z,20.24
2022-09-07T09:38:33.744Z,20.01
2022-09-07T09:41:06.199Z,20.08
2022-09-07T09:43:41.918Z,20.32
2022-09-07T09:46:27.282Z,20.50
2022-09-07T09:48:57.896Z,20.60
2022-09-07T09:54:44.582Z,20.60
2022-09-07T09:57:38.121Z,20.73
2022-09-07T10:00:10.976Z,20.77
2022-09-07T10:05:35.102Z,20.56
2022-09-07T10:08:02.647Z,20.40
2022-09-07T10:10:31.311Z,20.29
2022-09-07T10:12:58.269Z,20.35
2022-09-07T10:15:33.644Z,20.43
2022-09-07T10:18:06.143Z,20.31
2022-09-07T10:20:37.834Z,20.19
2022-09-07T10:23:06.607Z,20.05
2022-09-07T10:25:34.790Z,20.03
2022-09-07T10:28:03.892Z,19.95
2022-09-07T10:30:55.691Z,20.00
2022-09-07T10:33:34.613Z,20.24
2022-09-07T10:36:16.343Z,20.40
2022-09-07T10:38:56.059Z,20.48
2022-09-07T10:41:33.329Z,20.60
2022-09-07T10:44:02.819Z,20.76
2022-09-07T10:46:59.664Z,20.91
2022-09-07T10:50:22.042Z,21.15
2022-09-07T10:52:40.797Z,21.07
2022-09-07T10:55:15.282Z,20.84
2022-09-07T10:58:03.453Z,20.80
2022-09-07T11:01:03.291Z,20.65
2022-09-07T11:03:42.670Z,20.59
2022-09-07T11:06:16.822Z,20.73
2022-09-07T11:12:05.852Z,20.78
2022-09-07T11:14:45.710Z,20.80
2022-09-07T11:17:20.532Z,20.82
2022-09-07T11:19:53.566Z,21.01
2022-09-07T11:22:33.453Z,20.97
2022-09-07T11:25:29.434Z,21.12
2022-09-07T11:27:59.365Z,21.19
2022-09-07T11:30:40.701Z,21.28
2022-09-07T11:33:07.362Z,21.29
2022-09-07T11:35:45.909Z,21.25
2022-09-07T11:38:33.904Z,21.22
2022-09-07T11:41:18.783Z,21.29
2022-09-07T11:43:50.606Z,21.22
2022-09-07T11:46:45.493Z,21.37
2022-09-07T11:49:24.646Z,21.44
2022-09-07T11:52:15.843Z,21.51
2022-09-07T11:54:55.817Z,21.44
2022-09-07T11:57:41.335Z,21.28
2022-09-07T12:00:12.994Z,21.46
2022-09-07T12:02:59.943Z,21.52
2022-09-07T12:05:36.372Z,21.44
2022-09-07T12:08:40.662Z,21.42
2022-09-07T12:11:24.895Z,21.44
2022-09-07T12:14:18.680Z,21.58
2022-09-07T12:17:23.566Z,21.69
2022-09-07T12:20:11.003Z,21.66
2022-09-07T12:22:38.021Z,21.72
2022-09-07T12:25:09.474Z,21.83
2022-09-07T12:27:38.132Z,21.94
2022-09-07T12:30:04.856Z,21.95
2022-09-07T12:32:55.331Z,22.09
2022-09-07T12:35:29.874Z,22.08
2022-09-07T12:38:17.904Z,21.95
2022-09-07T12:40:49.285Z,22.17
2022-09-07T12:43:15.798Z,22.21
2022-09-07T12:45:42.331Z,22.22
2022-09-07T12:48:15.505Z,22.18
2022-09-07T12:51:07.323Z,22.00
2022-09-07T12:54:04.153Z,22.01
2022-09-07T12:56:45.191Z,22.27
2022-09-07T12:59:30.656Z,22.34
2022-09-07T13:02:20.834Z,22.41
2022-09-07T13:05:14.425Z,22.59
2022-09-07T13:08:08.218Z,22.63
2022-09-07T13:10:42.589Z,22.60
2022-09-07T13:13:15.330Z,22.59
2022-09-07T13:16:12.098Z,22.70
2022-09-07T13:18:41.588Z,22.57
2022-09-07T13:21:08.111Z,22.63
2022-09-07T13:23:35.719Z,22.71
2022-09-07T13:26:04.957Z,22.74
2022-09-07T13:28:36.770Z,22.82
2022-09-07T13:31:45.499Z,22.89
2022-09-07T13:34:45.578Z,22.79
2022-09-07T13:37:22.450Z,23.01
2022-09-07T13:39:52.585Z,23.12
2022-09-07T13:42:25.557Z,23.18
2022-09-07T13:44:56.193Z,23.26
2022-09-07T13:47:33.417Z,23.30
2022-09-07T13:50:24.101Z,23.29
2022-09-07T13:53:12.300Z,23.27
2022-09-07T13:55:45.317Z,23.23
2022-09-07T13:58:35.449Z,23.11
2022-09-07T14:01:06.111Z,23.12
2022-09-07T14:03:51.290Z,23.12
2022-09-07T14:06:20.925Z,23.07
2022-09-07T14:08:50.078Z,23.07
2022-09-07T14:11:21.339Z,23.13
2022-09-07T14:14:09.757Z,23.11
2022-09-07T14:16:37.063Z,23.09
2022-09-07T14:19:11.364Z,23.04
2022-09-07T14:21:38.861Z,23.14
2022-09-07T14:24:20.392Z,23.29
2022-09-07T14:26:48.713Z,23.41
2022-09-07T14:29:24.400Z,23.43
2022-09-07T14:31:51.288Z,23.43
2022-09-07T14:34:22.910Z,23.38
2022-09-07T14:36:51.246Z,23.09
2022-09-07T14:39:22.118Z,23.19
2022-09-07T14:41:49.874Z,23.40
2022-09-07T14:44:31.877Z,23.58
2022-09-07T14:47:19.777Z,23.59
2022-09-07T14:49:53.467Z,23.66
2022-09-07T14:52:27.213Z,23.70
2022-09-07T14:54:53.825Z,23.73
2022-09-07T14:57:30.356Z,23.79
2022-09-07T14:59:58.815Z,23.64
2022-09-07T15:02:33.247Z,23.63
2022-09-07T15:05:15.134Z,23.72
2022-09-07T15:07:56.498Z,23.83
2022-09-07T15:10:23.562Z,23.80
2022-09-07T15:13:01.432Z,23.89
2022-09-07T15:15:34.440Z,23.61
2022-09-07T15:18:08.751Z,23.55
2022-09-07T15:20:42.917Z,23.64
2022-09-07T15:23:12.146Z,23.82
2022-09-07T15:25:40.635Z,24.02
2022-09-07T15:28:14.047Z,24.03
2022-09-07T15:30:41.984Z,24.10
2022-09-07T15:33:08.915Z,24.11
2022-09-07T15:35:35.490Z,24.00
2022-09-07T15:38:04.377Z,24.00
2022-09-07T15:41:03.872Z,23.99
2022-09-07T15:43:29.162Z,23.93
2022-09-07T15:45:55.815Z,24.00
2022-09-07T15:48:25.334Z,24.00
2022-09-07T15:51:00.977Z,23.96
2022-09-07T15:56:16.073Z,23.82
2022-09-07T15:58:45.565Z,23.86
2022-09-07T16:03:59.392Z,23.86
2022-09-07T16:06:26.393Z,24.03
2022-09-07T16:08:53.747Z,24.15
2022-09-07T16:11:25.749Z,24.23
2022-09-07T16:14:02.011Z,24.07
2022-09-07T16:19:20.491Z,24.33
2022-09-07T16:21:47.708Z,24.58
2022-09-07T16:24:14.524Z,24.85
2022-09-07T16:26:41.131Z,24.90
2022-09-07T16:29:07.989Z,24.98
2022-09-07T16:31:35.382Z,25.05
2022-09-07T16:34:03.350Z,25.02
2022-09-07T16:36:30.630Z,24.94
2022-09-07T16:38:59.651Z,24.98
2022-09-07T16:41:30.909Z,24.93
2022-09-07T16:43:58.676Z,24.86
2022-09-07T16:46:27.680Z,24.89
2022-09-07T16:48:55.133Z,24.99
2022-09-07T16:51:22.911Z,25.12
2022-09-07T16:53:51.280Z,24.95
2022-09-07T16:56:20.293Z,24.77
2022-09-07T16:58:56.720Z,24.90
2022-09-07T17:01:28.663Z,25.13
2022-09-07T17:03:55.737Z,25.24
2022-09-07T17:06:24.852Z,25.21
2022-09-07T17:08:52.764Z,25.23
2022-09-07T17:11:22.968Z,25.20
2022-09-07T17:13:51.518Z,25.31
2022-09-07T17:16:21.830Z,25.22
2022-09-07T17:21:38.258Z,25.11
2022-09-07T17:24:06.777Z,24.98
2022-09-07T17:26:33.802Z,24.95
2022-09-07T17:29:01.215Z,24.73
2022-09-07T17:34:17.416Z,24.64
2022-09-07T17:36:43.971Z,24.68
2022-09-07T17:39:14.950Z,24.60
2022-09-07T17:41:43.610Z,24.64
2022-09-07T17:44:10.276Z,24.53
2022-09-07T17:46:36.864Z,24.35
2022-09-07T17:49:04.098Z,24.20
2022-09-07T17:51:32.225Z,23.85
2022-09-07T17:54:03.791Z,23.51
2022-09-07T17:56:31.817Z,23.36
2022-09-07T18:01:45.856Z,23.09
2022-09-07T18:04:13.071Z,23.10
2022-09-07T18:06:40.969Z,23.21
2022-09-07T18:09:07.528Z,23.32
2022-09-07T18:11:50.545Z,23.28
2022-09-07T18:14:18.897Z,23.25
2022-09-07T18:16:48.823Z,23.12
2022-09-07T18:19:15.746Z,22.99
2022-09-07T18:21:43.517Z,22.94
2022-09-07T18:24:22.784Z,22.92
2022-09-07T18:26:52.582Z,22.86
2022-09-07T18:29:32.831Z,22.80
2022-09-07T18:32:08.285Z,22.74
2022-09-07T18:34:36.321Z,22.74
2022-09-07T18:37:03.004Z,22.72
2022-09-07T18:39:29.697Z,22.64
2022-09-07T18:41:56.748Z,22.35
2022-09-07T18:47:21.467Z,22.37
2022-09-07T18:49:50.157Z,22.32
2022-09-07T18:55:06.988Z,22.21
2022-09-07T18:57:34.128Z,22.23
2022-09-07T19:00:00.930Z,22.06
2022-09-07T19:02:27.529Z,22.06
2022-09-07T19:07:41.219Z,22.04
2022-09-07T19:10:08.051Z,21.95
2022-09-07T19:12:34.874Z,21.92
2022-09-07T19:15:01.382Z,21.93
2022-09-07T19:17:28.158Z,21.80
2022-09-07T19:19:54.695Z,21.80
2022-09-07T19:22:21.350Z,21.74
2022-09-07T19:24:48.179Z,21.56
2022-09-07T19:27:14.864Z,21.53
2022-09-07T19:29:41.402Z,21.52
2022-09-07T19:32:08.038Z,21.51
2022-09-07T19:34:43.277Z,21.56
2022-09-07T19:37:11.850Z,21.54
2022-09-07T19:39:38.500Z,21.50
2022-09-07T19:42:06.099Z,21.39
2022-09-07T19:44:32.740Z,21.38
2022-09-07T19:47:00.420Z,21.38
2022-09-07T19:49:27.852Z,21.41
2022-09-07T19:51:54.694Z,21.39
2022-09-07T19:54:21.432Z,21.37
2022-09-07T19:56:48.081Z,21.20
2022-09-07T19:59:14.650Z,21.16
2022-09-07T20:01:46.043Z,21.15
2022-09-07T20:04:19.706Z,21.08
2022-09-07T20:06:48.020Z,21.02
2022-09-07T20:09:14.589Z,20.92
2022-09-07T20:11:46.116Z,20.95
2022-09-07T20:14:14.033Z,21.05
2022-09-07T20:16:41.513Z,21.25
2022-09-07T20:19:10.647Z,21.15
2022-09-07T20:21:37.150Z,21.04
2022-09-07T20:24:04.442Z,21.00
2022-09-07T20:26:32.215Z,20.82
2022-09-07T20:29:16.839Z,20.76
2022-09-07T20:31:47.224Z,20.56
2022-09-07T20:34:14.252Z,20.76
2022-09-07T20:36:40.889Z,20.83
2022-09-07T20:39:07.847Z,20.43
2022-09-07T20:41:34.858Z,20.46
2022-09-07T20:44:03.392Z,20.43
2022-09-07T20:46:30.972Z,20.59
2022-09-07T20:48:58.404Z,20.48
2022-09-07T20:51:25.916Z,20.62
2022-09-07T20:53:52.599Z,20.70
2022-09-07T20:56:22.322Z,20.76
2022-09-07T20:58:54.752Z,20.74
2022-09-07T21:01:22.045Z,20.73
2022-09-07T21:03:52.028Z,20.70
2022-09-07T21:06:20.612Z,20.64
2022-09-07T21:08:48.163Z,20.67
2022-09-07T21:11:27.082Z,20.70
2022-09-07T21:13:59.276Z,20.66
2022-09-07T21:16:26.819Z,20.67
2022-09-07T21:18:58.812Z,20.69
2022-09-07T21:21:27.095Z,20.23
2022-09-07T21:23:59.287Z,20.19
2022-09-07T21:26:28.141Z,20.35
2022-09-07T21:28:59.213Z,20.41
2022-09-07T21:31:26.733Z,20.24
2022-09-07T21:33:55.830Z,20.11
2022-09-07T21:36:23.168Z,20.27
2022-09-07T21:38:50.385Z,20.25
2022-09-07T21:41:19.277Z,20.02
2022-09-07T21:43:46.344Z,19.87
2022-09-07T21:46:19.142Z,20.00
2022-09-07T21:48:45.950Z,19.89
2022-09-07T21:51:14.090Z,19.83
2022-09-07T21:53:41.454Z,20.07
2022-09-07T21:56:13.163Z,20.16
2022-09-07T21:58:40.204Z,20.27
2022-09-07T22:01:10.912Z,20.33
2022-09-07T22:03:39.201Z,20.36
2022-09-07T22:06:06.496Z,20.42
2022-09-07T22:08:35.759Z,20.33
2022-09-07T22:11:11.406Z,20.06
2022-09-07T22:13:38.081Z,20.05
2022-09-07T22:16:06.128Z,20.21
2022-09-07T22:18:32.921Z,20.09
2022-09-07T22:21:10.170Z,20.04
2022-09-07T22:23:46.110Z,20.24
2022-09-07T22:26:14.055Z,20.25
2022-09-07T22:28:41.067Z,20.24
2022-09-07T22:31:18.789Z,20.27
2022-09-07T22:33:47.330Z,20.05
2022-09-07T22:36:26.108Z,20.04
2022-09-07T22:38:54.973Z,20.08
2022-09-07T22:41:26.975Z,20.24
2022-09-07T22:43:53.768Z,20.20
2022-09-07T22:46:23.033Z,20.26
2022-09-07T22:48:50.167Z,20.20
2022-09-07T22:51:17.304Z,20.17
2022-09-07T22:53:44.179Z,20.13
2022-09-07T22:56:18.526Z,20.01
2022-09-07T22:58:50.485Z,20.10
2022-09-07T23:01:17.785Z,20.21
2022-09-07T23:03:45.173Z,20.25
2022-09-07T23:06:23.849Z,20.22
2022-09-07T23:08:51.908Z,20.13
2022-09-07T23:11:18.801Z,20.24
2022-09-07T23:13:45.660Z,20.26
2022-09-07T23:16:13.107Z,20.25
2022-09-07T23:18:42.808Z,20.19
2022-09-07T23:21:10.604Z,20.03
2022-09-07T23:23:38.040Z,20.05
2022-09-07T23:26:05.337Z,19.85
2022-09-07T23:28:32.801Z,19.65
2022-09-07T23:30:59.478Z,19.80
2022-09-07T23:33:27.027Z,19.80
2022-09-07T23:36:03.768Z,19.93
2022-09-07T23:38:30.969Z,20.07
2022-09-07T23:40:59.130Z,20.33
2022-09-07T23:43:27.256Z,20.38
2022-09-07T23:45:54.803Z,20.58
2022-09-07T23:48:22.455Z,20.80
2022-09-07T23:50:49.796Z,20.96
2022-09-07T23:53:17.872Z,21.00
2022-09-07T23:55:45.205Z,21.02
2022-09-07T23:58:11.967Z,21.09
